Chicago, Illinois
Traffic Map
Current Weather Conditions
Chicago, Illinois
Overcast Light Rain
Overcast
43°
Feels Like: 36°
Wind Chill: 36° Ceiling: 1000
Heat Index: 43° Visibility: 4mi
Dew Point: 40° Wind: 14mph
Humidity: 89% Direction: 130° (SE)
Pressure: 29.65in Gusts: 0mph
Raw Report DataKMDW 230213Z 13012KT 4SM -RA BR OVC010 06/04 A2965 RMK AO2 P0000 T00610044
Traffic Incident Summary
Active as of:
Severity:
Category:
InformationThere was an issue retrieving the traffic information for this location. Please try a different location or try again shortly.
Advertisements
Track Severe Weather on mobile